Terminal Aerodrome Forecast
Issued by NWS

Home | Current Version | Previous Version | Text Only | Print | Product List | Glossary On
Versions: 1 2 3 4 5 6 7 8 9 10 11 12 13 14 15 16 17 18 19
000
FTUS43 KTOP 231700
TAFMHK
TAF
KMHK 231720Z 2318/2418 15016G24KT P6SM VCSH OVC100
     FM232000 17021G31KT P6SM SCT150
     FM240700 23012KT 3SM TSRA OVC013CB
     FM241200 32016G24KT 6SM SHRA OVC025=

USA.gov is the U.S. government's official web portal to all federal, state and local government web resources and services.